sensor_id;sensor_type;location;lat;lon;timestamp;P1;durP1;ratioP1;P2;durP2;ratioP2
13347;SDS011;6743;49.934;9.138;2023-03-18T00:01:17;3.50;;;3.03;;
13347;SDS011;6743;49.934;9.138;2023-03-18T00:03:47;3.92;;;2.60;;
13347;SDS011;6743;49.934;9.138;2023-03-18T00:06:14;3.43;;;2.70;;
13347;SDS011;6743;49.934;9.138;2023-03-18T00:08:42;2.40;;;2.20;;
13347;SDS011;6743;49.934;9.138;2023-03-18T00:11:10;2.42;;;2.00;;
13347;SDS011;6743;49.934;9.138;2023-03-18T00:13:38;2.45;;;2.25;;
13347;SDS011;6743;49.934;9.138;2023-03-18T00:16:06;2.73;;;2.03;;
13347;SDS011;6743;49.934;9.138;2023-03-18T00:18:34;2.15;;;1.95;;
13347;SDS011;6743;49.934;9.138;2023-03-18T00:21:01;2.60;;;2.40;;
13347;SDS011;6743;49.934;9.138;2023-03-18T00:23:27;4.18;;;2.33;;
13347;SDS011;6743;49.934;9.138;2023-03-18T00:25:55;2.10;;;1.83;;
13347;SDS011;6743;49.934;9.138;2023-03-18T00:28:25;2.37;;;1.73;;
13347;SDS011;6743;49.934;9.138;2023-03-18T00:30:51;2.50;;;2.27;;
13347;SDS011;6743;49.934;9.138;2023-03-18T00:33:18;2.20;;;2.00;;
13347;SDS011;6743;49.934;9.138;2023-03-18T00:35:45;3.07;;;2.20;;
13347;SDS011;6743;49.934;9.138;2023-03-18T00:38:13;2.20;;;2.00;;
13347;SDS011;6743;49.934;9.138;2023-03-18T00:40:45;2.70;;;2.25;;
13347;SDS011;6743;49.934;9.138;2023-03-18T00:43:18;1.57;;;1.47;;
13347;SDS011;6743;49.934;9.138;2023-03-18T00:45:47;3.07;;;2.20;;
13347;SDS011;6743;49.934;9.138;2023-03-18T00:48:16;2.53;;;2.00;;
13347;SDS011;6743;49.934;9.138;2023-03-18T00:50:43;2.15;;;1.98;;
13347;SDS011;6743;49.934;9.138;2023-03-18T00:53:13;1.30;;;1.30;;
13347;SDS011;6743;49.934;9.138;2023-03-18T00:55:39;1.58;;;1.48;;
13347;SDS011;6743;49.934;9.138;2023-03-18T00:58:06;1.85;;;1.75;;
13347;SDS011;6743;49.934;9.138;2023-03-18T01:00:32;1.50;;;1.35;;
13347;SDS011;6743;49.934;9.138;2023-03-18T01:02:59;1.50;;;1.40;;
13347;SDS011;6743;49.934;9.138;2023-03-18T01:05:25;1.05;;;1.05;;
13347;SDS011;6743;49.934;9.138;2023-03-18T01:07:52;2.17;;;1.97;;
13347;SDS011;6743;49.934;9.138;2023-03-18T01:10:18;1.70;;;1.30;;
13347;SDS011;6743;49.934;9.138;2023-03-18T01:12:45;1.70;;;1.60;;
13347;SDS011;6743;49.934;9.138;2023-03-18T01:15:12;1.90;;;1.80;;
13347;SDS011;6743;49.934;9.138;2023-03-18T01:17:42;2.30;;;2.10;;
13347;SDS011;6743;49.934;9.138;2023-03-18T01:20:13;2.67;;;2.03;;
13347;SDS011;6743;49.934;9.138;2023-03-18T01:22:42;2.15;;;1.83;;
13347;SDS011;6743;49.934;9.138;2023-03-18T01:25:10;3.13;;;1.83;;
13347;SDS011;6743;49.934;9.138;2023-03-18T01:27:47;1.63;;;1.53;;
13347;SDS011;6743;49.934;9.138;2023-03-18T01:30:14;2.20;;;1.90;;
13347;SDS011;6743;49.934;9.138;2023-03-18T01:32:40;2.15;;;1.50;;
13347;SDS011;6743;49.934;9.138;2023-03-18T01:35:17;2.83;;;2.20;;
13347;SDS011;6743;49.934;9.138;2023-03-18T01:37:44;1.83;;;1.73;;
13347;SDS011;6743;49.934;9.138;2023-03-18T01:40:14;3.10;;;2.10;;
13347;SDS011;6743;49.934;9.138;2023-03-18T01:42:41;3.28;;;1.77;;
13347;SDS011;6743;49.934;9.138;2023-03-18T01:45:17;2.63;;;1.90;;
13347;SDS011;6743;49.934;9.138;2023-03-18T01:47:48;2.13;;;1.93;;
13347;SDS011;6743;49.934;9.138;2023-03-18T01:50:16;2.03;;;1.60;;
13347;SDS011;6743;49.934;9.138;2023-03-18T01:52:57;2.93;;;1.93;;
13347;SDS011;6743;49.934;9.138;2023-03-18T01:55:27;3.00;;;1.80;;
13347;SDS011;6743;49.934;9.138;2023-03-18T01:57:55;1.57;;;1.47;;
13347;SDS011;6743;49.934;9.138;2023-03-18T02:00:38;1.73;;;1.60;;
13347;SDS011;6743;49.934;9.138;2023-03-18T02:03:10;2.03;;;1.83;;
13347;SDS011;6743;49.934;9.138;2023-03-18T02:05:37;1.67;;;1.40;;
13347;SDS011;6743;49.934;9.138;2023-03-18T02:08:07;1.80;;;1.70;;
13347;SDS011;6743;49.934;9.138;2023-03-18T02:10:34;1.48;;;1.37;;
13347;SDS011;6743;49.934;9.138;2023-03-18T02:13:03;1.67;;;1.33;;
13347;SDS011;6743;49.934;9.138;2023-03-18T02:15:33;1.40;;;1.30;;
13347;SDS011;6743;49.934;9.138;2023-03-18T02:18:13;1.50;;;1.40;;
13347;SDS011;6743;49.934;9.138;2023-03-18T02:20:47;1.20;;;1.20;;
13347;SDS011;6743;49.934;9.138;2023-03-18T02:23:27;3.20;;;1.73;;
13347;SDS011;6743;49.934;9.138;2023-03-18T02:26:02;1.63;;;1.43;;
13347;SDS011;6743;49.934;9.138;2023-03-18T02:28:35;1.60;;;1.50;;
13347;SDS011;6743;49.934;9.138;2023-03-18T02:31:03;1.35;;;1.25;;
13347;SDS011;6743;49.934;9.138;2023-03-18T02:33:35;2.43;;;1.50;;
13347;SDS011;6743;49.934;9.138;2023-03-18T02:36:06;1.73;;;1.40;;
13347;SDS011;6743;49.934;9.138;2023-03-18T02:38:37;3.03;;;1.48;;
13347;SDS011;6743;49.934;9.138;2023-03-18T02:41:27;1.73;;;1.63;;
13347;SDS011;6743;49.934;9.138;2023-03-18T02:43:56;1.93;;;1.83;;
13347;SDS011;6743;49.934;9.138;2023-03-18T02:46:27;1.53;;;1.43;;
13347;SDS011;6743;49.934;9.138;2023-03-18T02:48:57;1.80;;;1.70;;
13347;SDS011;6743;49.934;9.138;2023-03-18T02:51:24;1.20;;;1.20;;
13347;SDS011;6743;49.934;9.138;2023-03-18T02:53:52;1.53;;;1.43;;
13347;SDS011;6743;49.934;9.138;2023-03-18T02:56:22;1.93;;;1.77;;
13347;SDS011;6743;49.934;9.138;2023-03-18T02:58:49;1.80;;;1.70;;
13347;SDS011;6743;49.934;9.138;2023-03-18T03:01:16;1.70;;;1.60;;
13347;SDS011;6743;49.934;9.138;2023-03-18T03:03:43;1.30;;;1.30;;
13347;SDS011;6743;49.934;9.138;2023-03-18T03:06:09;1.50;;;1.40;;
13347;SDS011;6743;49.934;9.138;2023-03-18T03:08:36;1.70;;;1.60;;
13347;SDS011;6743;49.934;9.138;2023-03-18T03:11:03;2.07;;;1.87;;
13347;SDS011;6743;49.934;9.138;2023-03-18T03:13:29;2.10;;;1.60;;
13347;SDS011;6743;49.934;9.138;2023-03-18T03:15:55;1.80;;;1.70;;
13347;SDS011;6743;49.934;9.138;2023-03-18T03:18:22;1.67;;;1.57;;
13347;SDS011;6743;49.934;9.138;2023-03-18T03:20:48;2.58;;;1.42;;
13347;SDS011;6743;49.934;9.138;2023-03-18T03:23:15;1.70;;;1.60;;
13347;SDS011;6743;49.934;9.138;2023-03-18T03:25:42;2.43;;;1.40;;
13347;SDS011;6743;49.934;9.138;2023-03-18T03:28:09;1.83;;;1.73;;
13347;SDS011;6743;49.934;9.138;2023-03-18T03:30:36;1.93;;;1.70;;
13347;SDS011;6743;49.934;9.138;2023-03-18T03:33:03;4.00;;;1.53;;
13347;SDS011;6743;49.934;9.138;2023-03-18T03:35:30;1.37;;;1.27;;
13347;SDS011;6743;49.934;9.138;2023-03-18T03:37:57;1.73;;;1.60;;
13347;SDS011;6743;49.934;9.138;2023-03-18T03:40:24;1.73;;;1.50;;
13347;SDS011;6743;49.934;9.138;2023-03-18T03:43:22;1.70;;;1.60;;
13347;SDS011;6743;49.934;9.138;2023-03-18T03:45:52;1.73;;;1.63;;
13347;SDS011;6743;49.934;9.138;2023-03-18T03:48:18;1.47;;;1.20;;
13347;SDS011;6743;49.934;9.138;2023-03-18T03:50:45;1.60;;;1.53;;
13347;SDS011;6743;49.934;9.138;2023-03-18T03:53:12;1.50;;;1.40;;
13347;SDS011;6743;49.934;9.138;2023-03-18T03:55:38;1.33;;;1.33;;
13347;SDS011;6743;49.934;9.138;2023-03-18T03:58:04;2.00;;;1.85;;
13347;SDS011;6743;49.934;9.138;2023-03-18T04:00:30;1.57;;;1.30;;
13347;SDS011;6743;49.934;9.138;2023-03-18T04:02:57;1.63;;;1.53;;
13347;SDS011;6743;49.934;9.138;2023-03-18T04:05:23;1.47;;;1.27;;
13347;SDS011;6743;49.934;9.138;2023-03-18T04:07:51;2.83;;;1.50;;
13347;SDS011;6743;49.934;9.138;2023-03-18T04:10:18;1.40;;;1.30;;
13347;SDS011;6743;49.934;9.138;2023-03-18T04:12:46;1.53;;;1.17;;
13347;SDS011;6743;49.934;9.138;2023-03-18T04:15:14;1.60;;;1.50;;
13347;SDS011;6743;49.934;9.138;2023-03-18T04:17:41;3.47;;;1.67;;
13347;SDS011;6743;49.934;9.138;2023-03-18T04:20:08;2.50;;;1.90;;
13347;SDS011;6743;49.934;9.138;2023-03-18T04:22:35;2.00;;;1.50;;
13347;SDS011;6743;49.934;9.138;2023-03-18T04:25:02;1.10;;;1.00;;
13347;SDS011;6743;49.934;9.138;2023-03-18T04:27:29;1.77;;;1.50;;
13347;SDS011;6743;49.934;9.138;2023-03-18T04:29:56;2.60;;;1.30;;
13347;SDS011;6743;49.934;9.138;2023-03-18T04:32:23;1.70;;;1.60;;
13347;SDS011;6743;49.934;9.138;2023-03-18T04:34:49;0.97;;;0.93;;
13347;SDS011;6743;49.934;9.138;2023-03-18T04:37:15;2.37;;;1.50;;
13347;SDS011;6743;49.934;9.138;2023-03-18T04:39:44;1.67;;;1.50;;
13347;SDS011;6743;49.934;9.138;2023-03-18T04:42:11;1.57;;;1.47;;
13347;SDS011;6743;49.934;9.138;2023-03-18T04:44:37;2.33;;;1.25;;
13347;SDS011;6743;49.934;9.138;2023-03-18T04:47:03;2.77;;;1.97;;
13347;SDS011;6743;49.934;9.138;2023-03-18T04:49:29;2.40;;;1.63;;
13347;SDS011;6743;49.934;9.138;2023-03-18T04:51:55;1.80;;;1.70;;
13347;SDS011;6743;49.934;9.138;2023-03-18T04:54:21;1.97;;;1.67;;
13347;SDS011;6743;49.934;9.138;2023-03-18T04:56:47;3.10;;;1.50;;
13347;SDS011;6743;49.934;9.138;2023-03-18T04:59:14;1.33;;;1.20;;
13347;SDS011;6743;49.934;9.138;2023-03-18T05:01:41;1.97;;;1.60;;
13347;SDS011;6743;49.934;9.138;2023-03-18T05:04:07;1.63;;;1.53;;
13347;SDS011;6743;49.934;9.138;2023-03-18T05:06:33;1.43;;;1.33;;
13347;SDS011;6743;49.934;9.138;2023-03-18T05:08:59;2.23;;;1.40;;
13347;SDS011;6743;49.934;9.138;2023-03-18T05:11:25;1.73;;;1.63;;
13347;SDS011;6743;49.934;9.138;2023-03-18T05:13:52;1.33;;;1.23;;
13347;SDS011;6743;49.934;9.138;2023-03-18T05:16:19;1.70;;;1.60;;
13347;SDS011;6743;49.934;9.138;2023-03-18T05:18:45;1.37;;;1.27;;
13347;SDS011;6743;49.934;9.138;2023-03-18T05:21:11;2.13;;;1.93;;
13347;SDS011;6743;49.934;9.138;2023-03-18T05:23:37;1.50;;;1.40;;
13347;SDS011;6743;49.934;9.138;2023-03-18T05:26:03;2.40;;;2.10;;
13347;SDS011;6743;49.934;9.138;2023-03-18T05:28:30;2.20;;;1.80;;
13347;SDS011;6743;49.934;9.138;2023-03-18T05:30:57;1.80;;;1.70;;
13347;SDS011;6743;49.934;9.138;2023-03-18T05:33:23;2.23;;;1.80;;
13347;SDS011;6743;49.934;9.138;2023-03-18T05:35:49;2.87;;;1.77;;
13347;SDS011;6743;49.934;9.138;2023-03-18T05:38:16;2.13;;;1.77;;
13347;SDS011;6743;49.934;9.138;2023-03-18T05:40:42;1.60;;;1.50;;
13347;SDS011;6743;49.934;9.138;2023-03-18T05:43:09;1.70;;;1.50;;
13347;SDS011;6743;49.934;9.138;2023-03-18T05:45:35;1.33;;;1.23;;
13347;SDS011;6743;49.934;9.138;2023-03-18T05:48:02;2.27;;;1.30;;
13347;SDS011;6743;49.934;9.138;2023-03-18T05:50:29;1.73;;;1.63;;
13347;SDS011;6743;49.934;9.138;2023-03-18T05:52:57;2.10;;;1.60;;
13347;SDS011;6743;49.934;9.138;2023-03-18T05:55:23;1.57;;;1.47;;
13347;SDS011;6743;49.934;9.138;2023-03-18T05:57:49;1.77;;;1.60;;
13347;SDS011;6743;49.934;9.138;2023-03-18T06:00:16;1.23;;;0.97;;
13347;SDS011;6743;49.934;9.138;2023-03-18T06:02:43;1.37;;;1.37;;
13347;SDS011;6743;49.934;9.138;2023-03-18T06:05:09;1.73;;;1.60;;
13347;SDS011;6743;49.934;9.138;2023-03-18T06:07:37;1.93;;;1.30;;
13347;SDS011;6743;49.934;9.138;2023-03-18T06:10:03;2.57;;;1.87;;
13347;SDS011;6743;49.934;9.138;2023-03-18T06:12:30;1.87;;;1.60;;
13347;SDS011;6743;49.934;9.138;2023-03-18T06:14:56;1.37;;;1.30;;
13347;SDS011;6743;49.934;9.138;2023-03-18T06:17:22;1.60;;;1.30;;
13347;SDS011;6743;49.934;9.138;2023-03-18T06:19:48;2.17;;;2.03;;
13347;SDS011;6743;49.934;9.138;2023-03-18T06:22:14;1.40;;;1.30;;
13347;SDS011;6743;49.934;9.138;2023-03-18T06:24:42;1.37;;;1.27;;
13347;SDS011;6743;49.934;9.138;2023-03-18T06:27:08;2.10;;;1.30;;
13347;SDS011;6743;49.934;9.138;2023-03-18T06:29:34;1.40;;;1.37;;
13347;SDS011;6743;49.934;9.138;2023-03-18T06:32:02;1.10;;;1.00;;
13347;SDS011;6743;49.934;9.138;2023-03-18T06:34:28;1.63;;;1.23;;
13347;SDS011;6743;49.934;9.138;2023-03-18T06:36:54;1.37;;;1.27;;
13347;SDS011;6743;49.934;9.138;2023-03-18T06:39:21;2.03;;;1.30;;
13347;SDS011;6743;49.934;9.138;2023-03-18T06:41:47;1.87;;;1.53;;
13347;SDS011;6743;49.934;9.138;2023-03-18T06:44:13;2.27;;;1.47;;
13347;SDS011;6743;49.934;9.138;2023-03-18T06:46:39;1.47;;;1.37;;
13347;SDS011;6743;49.934;9.138;2023-03-18T06:49:05;1.27;;;1.17;;
13347;SDS011;6743;49.934;9.138;2023-03-18T06:51:31;1.00;;;1.00;;
13347;SDS011;6743;49.934;9.138;2023-03-18T06:53:58;1.50;;;1.40;;
13347;SDS011;6743;49.934;9.138;2023-03-18T06:56:24;1.77;;;1.67;;
13347;SDS011;6743;49.934;9.138;2023-03-18T06:58:51;1.70;;;1.57;;
13347;SDS011;6743;49.934;9.138;2023-03-18T07:01:18;2.30;;;2.07;;
13347;SDS011;6743;49.934;9.138;2023-03-18T07:03:45;1.80;;;1.67;;
13347;SDS011;6743;49.934;9.138;2023-03-18T07:06:11;1.37;;;1.20;;
13347;SDS011;6743;49.934;9.138;2023-03-18T07:08:37;1.53;;;1.43;;
13347;SDS011;6743;49.934;9.138;2023-03-18T07:11:03;1.43;;;1.33;;
13347;SDS011;6743;49.934;9.138;2023-03-18T07:13:31;3.33;;;1.60;;
13347;SDS011;6743;49.934;9.138;2023-03-18T07:15:57;1.50;;;1.40;;
13347;SDS011;6743;49.934;9.138;2023-03-18T07:18:25;3.50;;;1.30;;
13347;SDS011;6743;49.934;9.138;2023-03-18T07:20:51;1.57;;;1.40;;
13347;SDS011;6743;49.934;9.138;2023-03-18T07:23:17;1.40;;;1.20;;
13347;SDS011;6743;49.934;9.138;2023-03-18T07:25:43;1.60;;;1.33;;
13347;SDS011;6743;49.934;9.138;2023-03-18T07:28:10;1.60;;;1.50;;
13347;SDS011;6743;49.934;9.138;2023-03-18T07:30:36;1.60;;;1.50;;
13347;SDS011;6743;49.934;9.138;2023-03-18T07:33:03;1.40;;;1.30;;
13347;SDS011;6743;49.934;9.138;2023-03-18T07:35:29;2.30;;;1.30;;
13347;SDS011;6743;49.934;9.138;2023-03-18T07:37:56;3.30;;;1.37;;
13347;SDS011;6743;49.934;9.138;2023-03-18T07:40:22;1.90;;;1.80;;
13347;SDS011;6743;49.934;9.138;2023-03-18T07:42:48;1.60;;;1.50;;
13347;SDS011;6743;49.934;9.138;2023-03-18T07:45:16;2.30;;;1.70;;
13347;SDS011;6743;49.934;9.138;2023-03-18T07:47:42;4.17;;;2.30;;
13347;SDS011;6743;49.934;9.138;2023-03-18T07:50:09;1.75;;;1.60;;
13347;SDS011;6743;49.934;9.138;2023-03-18T07:52:36;1.80;;;1.70;;
13347;SDS011;6743;49.934;9.138;2023-03-18T07:55:02;2.00;;;1.80;;
13347;SDS011;6743;49.934;9.138;2023-03-18T07:57:29;1.80;;;1.70;;
13347;SDS011;6743;49.934;9.138;2023-03-18T07:59:55;2.65;;;2.00;;
13347;SDS011;6743;49.934;9.138;2023-03-18T08:02:21;1.55;;;1.45;;
13347;SDS011;6743;49.934;9.138;2023-03-18T08:04:48;1.45;;;1.35;;
13347;SDS011;6743;49.934;9.138;2023-03-18T08:07:14;3.10;;;2.03;;
13347;SDS011;6743;49.934;9.138;2023-03-18T08:09:41;3.03;;;1.80;;
13347;SDS011;6743;49.934;9.138;2023-03-18T08:12:07;2.17;;;1.70;;
13347;SDS011;6743;49.934;9.138;2023-03-18T08:14:33;1.42;;;1.33;;
13347;SDS011;6743;49.934;9.138;2023-03-18T08:17:00;1.95;;;1.58;;
13347;SDS011;6743;49.934;9.138;2023-03-18T08:19:26;2.40;;;2.12;;
13347;SDS011;6743;49.934;9.138;2023-03-18T08:21:52;2.87;;;1.60;;
13347;SDS011;6743;49.934;9.138;2023-03-18T08:24:19;1.98;;;1.58;;
13347;SDS011;6743;49.934;9.138;2023-03-18T08:26:45;1.45;;;1.33;;
13347;SDS011;6743;49.934;9.138;2023-03-18T08:29:11;1.45;;;1.35;;
13347;SDS011;6743;49.934;9.138;2023-03-18T08:31:37;1.60;;;1.50;;
13347;SDS011;6743;49.934;9.138;2023-03-18T08:34:03;1.77;;;1.60;;
13347;SDS011;6743;49.934;9.138;2023-03-18T08:36:29;1.55;;;1.45;;
13347;SDS011;6743;49.934;9.138;2023-03-18T08:38:56;1.40;;;1.30;;
13347;SDS011;6743;49.934;9.138;2023-03-18T08:41:22;1.58;;;1.48;;
13347;SDS011;6743;49.934;9.138;2023-03-18T08:43:49;1.75;;;1.20;;
13347;SDS011;6743;49.934;9.138;2023-03-18T08:46:16;1.45;;;1.35;;
13347;SDS011;6743;49.934;9.138;2023-03-18T08:48:42;2.08;;;1.87;;
13347;SDS011;6743;49.934;9.138;2023-03-18T08:51:09;1.70;;;1.60;;
13347;SDS011;6743;49.934;9.138;2023-03-18T08:53:35;1.87;;;1.37;;
13347;SDS011;6743;49.934;9.138;2023-03-18T08:56:01;1.48;;;1.37;;
13347;SDS011;6743;49.934;9.138;2023-03-18T08:58:28;1.37;;;1.27;;
13347;SDS011;6743;49.934;9.138;2023-03-18T09:00:54;1.35;;;1.23;;
13347;SDS011;6743;49.934;9.138;2023-03-18T09:03:20;0.70;;;0.70;;
13347;SDS011;6743;49.934;9.138;2023-03-18T09:05:48;0.82;;;0.82;;
13347;SDS011;6743;49.934;9.138;2023-03-18T09:08:14;0.70;;;0.70;;
13347;SDS011;6743;49.934;9.138;2023-03-18T09:10:40;1.30;;;1.20;;
13347;SDS011;6743;49.934;9.138;2023-03-18T09:13:06;1.10;;;1.00;;
13347;SDS011;6743;49.934;9.138;2023-03-18T09:15:34;0.70;;;0.70;;
13347;SDS011;6743;49.934;9.138;2023-03-18T09:18:00;1.45;;;1.20;;
13347;SDS011;6743;49.934;9.138;2023-03-18T09:20:26;0.88;;;0.88;;
13347;SDS011;6743;49.934;9.138;2023-03-18T09:22:52;0.75;;;0.75;;
13347;SDS011;6743;49.934;9.138;2023-03-18T09:25:19;1.02;;;0.68;;
13347;SDS011;6743;49.934;9.138;2023-03-18T09:27:45;0.80;;;0.80;;
13347;SDS011;6743;49.934;9.138;2023-03-18T09:30:11;0.65;;;0.65;;
13347;SDS011;6743;49.934;9.138;2023-03-18T09:32:39;0.82;;;0.82;;
13347;SDS011;6743;49.934;9.138;2023-03-18T09:35:05;1.23;;;1.12;;
13347;SDS011;6743;49.934;9.138;2023-03-18T09:37:33;1.05;;;1.05;;
13347;SDS011;6743;49.934;9.138;2023-03-18T09:40:00;0.68;;;0.65;;
13347;SDS011;6743;49.934;9.138;2023-03-18T09:42:29;0.65;;;0.65;;
13347;SDS011;6743;49.934;9.138;2023-03-18T09:45:08;1.10;;;0.90;;
13347;SDS011;6743;49.934;9.138;2023-03-18T09:47:43;0.90;;;0.90;;
13347;SDS011;6743;49.934;9.138;2023-03-18T09:50:20;0.90;;;0.90;;
13347;SDS011;6743;49.934;9.138;2023-03-18T09:52:58;2.15;;;0.90;;
13347;SDS011;6743;49.934;9.138;2023-03-18T09:55:36;0.68;;;0.68;;
13347;SDS011;6743;49.934;9.138;2023-03-18T09:58:07;0.68;;;0.68;;
13347;SDS011;6743;49.934;9.138;2023-03-18T10:00:39;4.00;;;1.33;;
13347;SDS011;6743;49.934;9.138;2023-03-18T10:03:09;1.00;;;0.90;;
13347;SDS011;6743;49.934;9.138;2023-03-18T10:05:42;1.17;;;0.95;;
13347;SDS011;6743;49.934;9.138;2023-03-18T10:08:14;0.75;;;0.75;;
13347;SDS011;6743;49.934;9.138;2023-03-18T10:10:45;0.82;;;0.82;;
13347;SDS011;6743;49.934;9.138;2023-03-18T10:13:14;0.75;;;0.75;;
13347;SDS011;6743;49.934;9.138;2023-03-18T10:15:44;0.80;;;0.80;;
13347;SDS011;6743;49.934;9.138;2023-03-18T10:18:16;1.25;;;1.15;;
13347;SDS011;6743;49.934;9.138;2023-03-18T10:20:50;1.05;;;0.90;;
13347;SDS011;6743;49.934;9.138;2023-03-18T10:23:24;1.80;;;1.17;;
13347;SDS011;6743;49.934;9.138;2023-03-18T10:25:56;0.82;;;0.82;;
13347;SDS011;6743;49.934;9.138;2023-03-18T10:28:30;1.30;;;1.15;;
13347;SDS011;6743;49.934;9.138;2023-03-18T10:31:08;0.73;;;0.73;;
13347;SDS011;6743;49.934;9.138;2023-03-18T10:33:44;1.00;;;0.88;;
13347;SDS011;6743;49.934;9.138;2023-03-18T10:36:17;0.70;;;0.70;;
13347;SDS011;6743;49.934;9.138;2023-03-18T10:38:47;0.73;;;0.73;;
13347;SDS011;6743;49.934;9.138;2023-03-18T10:41:17;0.90;;;0.90;;
13347;SDS011;6743;49.934;9.138;2023-03-18T10:43:46;0.82;;;0.82;;
13347;SDS011;6743;49.934;9.138;2023-03-18T10:46:15;0.68;;;0.68;;
13347;SDS011;6743;49.934;9.138;2023-03-18T10:48:45;0.88;;;0.88;;
13347;SDS011;6743;49.934;9.138;2023-03-18T10:51:15;0.80;;;0.80;;
13347;SDS011;6743;49.934;9.138;2023-03-18T10:53:48;0.60;;;0.60;;
13347;SDS011;6743;49.934;9.138;2023-03-18T10:56:20;0.60;;;0.60;;
13347;SDS011;6743;49.934;9.138;2023-03-18T10:58:46;1.05;;;0.90;;
13347;SDS011;6743;49.934;9.138;2023-03-18T11:01:15;0.75;;;0.75;;
13347;SDS011;6743;49.934;9.138;2023-03-18T11:03:44;0.82;;;0.80;;
13347;SDS011;6743;49.934;9.138;2023-03-18T11:06:15;0.80;;;0.80;;
13347;SDS011;6743;49.934;9.138;2023-03-18T11:08:45;0.82;;;0.82;;
13347;SDS011;6743;49.934;9.138;2023-03-18T11:11:19;0.90;;;0.90;;
13347;SDS011;6743;49.934;9.138;2023-03-18T11:13:48;1.55;;;1.08;;
13347;SDS011;6743;49.934;9.138;2023-03-18T11:16:22;1.30;;;1.20;;
13347;SDS011;6743;49.934;9.138;2023-03-18T11:18:51;1.27;;;1.17;;
13347;SDS011;6743;49.934;9.138;2023-03-18T11:21:17;1.15;;;0.90;;
13347;SDS011;6743;49.934;9.138;2023-03-18T11:23:48;1.92;;;0.93;;
13347;SDS011;6743;49.934;9.138;2023-03-18T11:26:36;0.70;;;0.70;;
13347;SDS011;6743;49.934;9.138;2023-03-18T11:29:10;3.37;;;1.15;;
13347;SDS011;6743;49.934;9.138;2023-03-18T11:31:46;1.70;;;0.93;;
13347;SDS011;6743;49.934;9.138;2023-03-18T11:34:16;1.00;;;1.00;;
13347;SDS011;6743;49.934;9.138;2023-03-18T11:36:46;1.17;;;1.05;;
13347;SDS011;6743;49.934;9.138;2023-03-18T11:39:17;1.55;;;0.80;;
13347;SDS011;6743;49.934;9.138;2023-03-18T11:41:43;0.80;;;0.70;;
13347;SDS011;6743;49.934;9.138;2023-03-18T11:44:14;1.50;;;1.00;;
13347;SDS011;6743;49.934;9.138;2023-03-18T11:46:42;1.33;;;0.80;;
13347;SDS011;6743;49.934;9.138;2023-03-18T11:49:12;1.08;;;1.00;;
13347;SDS011;6743;49.934;9.138;2023-03-18T11:51:43;1.45;;;0.93;;
13347;SDS011;6743;49.934;9.138;2023-03-18T11:54:18;1.15;;;0.93;;
13347;SDS011;6743;49.934;9.138;2023-03-18T11:56:59;1.12;;;1.02;;
13347;SDS011;6743;49.934;9.138;2023-03-18T11:59:31;0.70;;;0.70;;
13347;SDS011;6743;49.934;9.138;2023-03-18T12:02:16;1.12;;;1.08;;
13347;SDS011;6743;49.934;9.138;2023-03-18T12:05:12;1.00;;;0.90;;
13347;SDS011;6743;49.934;9.138;2023-03-18T12:07:58;1.23;;;1.12;;
13347;SDS011;6743;49.934;9.138;2023-03-18T12:10:35;1.25;;;1.00;;
13347;SDS011;6743;49.934;9.138;2023-03-18T12:13:18;0.73;;;0.73;;
13347;SDS011;6743;49.934;9.138;2023-03-18T12:15:58;0.90;;;0.90;;
13347;SDS011;6743;49.934;9.138;2023-03-18T12:18:33;0.98;;;0.98;;
13347;SDS011;6743;49.934;9.138;2023-03-18T12:21:16;1.10;;;1.00;;
13347;SDS011;6743;49.934;9.138;2023-03-18T12:24:08;1.23;;;1.12;;
13347;SDS011;6743;49.934;9.138;2023-03-18T12:26:48;1.05;;;1.02;;
13347;SDS011;6743;49.934;9.138;2023-03-18T12:32:18;1.40;;;0.85;;
13347;SDS011;6743;49.934;9.138;2023-03-18T12:34:54;1.10;;;0.85;;
13347;SDS011;6743;49.934;9.138;2023-03-18T12:37:28;1.08;;;0.98;;
13347;SDS011;6743;49.934;9.138;2023-03-18T12:40:24;0.80;;;0.80;;
13347;SDS011;6743;49.934;9.138;2023-03-18T12:43:05;1.00;;;1.00;;
13347;SDS011;6743;49.934;9.138;2023-03-18T12:45:57;0.73;;;0.73;;
13347;SDS011;6743;49.934;9.138;2023-03-18T12:48:28;0.95;;;0.88;;
13347;SDS011;6743;49.934;9.138;2023-03-18T12:50:58;1.12;;;1.05;;
13347;SDS011;6743;49.934;9.138;2023-03-18T12:53:29;1.40;;;1.30;;
13347;SDS011;6743;49.934;9.138;2023-03-18T12:56:01;1.23;;;0.75;;
13347;SDS011;6743;49.934;9.138;2023-03-18T12:58:30;0.88;;;0.85;;
13347;SDS011;6743;49.934;9.138;2023-03-18T13:01:03;0.80;;;0.80;;
13347;SDS011;6743;49.934;9.138;2023-03-18T13:03:34;0.93;;;0.80;;
13347;SDS011;6743;49.934;9.138;2023-03-18T13:06:03;1.10;;;1.00;;
13347;SDS011;6743;49.934;9.138;2023-03-18T13:08:47;1.10;;;0.77;;
13347;SDS011;6743;49.934;9.138;2023-03-18T13:14:26;0.70;;;0.70;;
13347;SDS011;6743;49.934;9.138;2023-03-18T13:16:57;1.75;;;1.15;;
13347;SDS011;6743;49.934;9.138;2023-03-18T13:19:25;1.25;;;0.95;;
13347;SDS011;6743;49.934;9.138;2023-03-18T13:21:53;0.65;;;0.65;;
13347;SDS011;6743;49.934;9.138;2023-03-18T13:24:46;0.85;;;0.77;;
13347;SDS011;6743;49.934;9.138;2023-03-18T13:30:39;1.17;;;1.08;;
13347;SDS011;6743;49.934;9.138;2023-03-18T13:33:28;1.08;;;1.00;;
13347;SDS011;6743;49.934;9.138;2023-03-18T13:36:16;0.77;;;0.77;;
13347;SDS011;6743;49.934;9.138;2023-03-18T13:39:01;1.02;;;0.90;;
13347;SDS011;6743;49.934;9.138;2023-03-18T13:41:40;0.93;;;0.88;;
13347;SDS011;6743;49.934;9.138;2023-03-18T13:44:20;0.82;;;0.70;;
13347;SDS011;6743;49.934;9.138;2023-03-18T13:46:56;0.73;;;0.73;;
13347;SDS011;6743;49.934;9.138;2023-03-18T13:49:27;1.33;;;1.20;;
13347;SDS011;6743;49.934;9.138;2023-03-18T13:51:55;0.82;;;0.80;;
13347;SDS011;6743;49.934;9.138;2023-03-18T13:54:23;0.85;;;0.85;;
13347;SDS011;6743;49.934;9.138;2023-03-18T14:00:11;0.50;;;0.50;;
13347;SDS011;6743;49.934;9.138;2023-03-18T14:03:00;0.70;;;0.70;;
13347;SDS011;6743;49.934;9.138;2023-03-18T14:05:34;0.73;;;0.73;;
13347;SDS011;6743;49.934;9.138;2023-03-18T14:08:17;1.35;;;1.17;;
13347;SDS011;6743;49.934;9.138;2023-03-18T14:14:23;1.15;;;1.00;;
13347;SDS011;6743;49.934;9.138;2023-03-18T14:17:17;0.85;;;0.85;;
13347;SDS011;6743;49.934;9.138;2023-03-18T14:19:51;1.42;;;0.93;;
13347;SDS011;6743;49.934;9.138;2023-03-18T14:22:21;1.15;;;1.08;;
13347;SDS011;6743;49.934;9.138;2023-03-18T14:25:09;1.30;;;0.65;;
13347;SDS011;6743;49.934;9.138;2023-03-18T14:27:45;1.02;;;0.93;;
13347;SDS011;6743;49.934;9.138;2023-03-18T14:30:35;0.80;;;0.80;;
13347;SDS011;6743;49.934;9.138;2023-03-18T14:36:13;1.20;;;1.10;;
13347;SDS011;6743;49.934;9.138;2023-03-18T14:38:41;0.93;;;0.93;;
13347;SDS011;6743;49.934;9.138;2023-03-18T14:41:19;0.68;;;0.68;;
13347;SDS011;6743;49.934;9.138;2023-03-18T14:43:53;0.90;;;0.90;;
13347;SDS011;6743;49.934;9.138;2023-03-18T14:46:31;0.50;;;0.50;;
13347;SDS011;6743;49.934;9.138;2023-03-18T14:49:00;0.77;;;0.77;;
13347;SDS011;6743;49.934;9.138;2023-03-18T14:51:29;1.77;;;1.05;;
13347;SDS011;6743;49.934;9.138;2023-03-18T14:53:57;0.70;;;0.70;;
13347;SDS011;6743;49.934;9.138;2023-03-18T14:56:29;0.80;;;0.80;;
13347;SDS011;6743;49.934;9.138;2023-03-18T14:58:56;0.70;;;0.70;;
13347;SDS011;6743;49.934;9.138;2023-03-18T15:01:22;0.50;;;0.50;;
13347;SDS011;6743;49.934;9.138;2023-03-18T15:03:51;1.27;;;1.00;;
13347;SDS011;6743;49.934;9.138;2023-03-18T15:06:19;3.40;;;0.88;;
13347;SDS011;6743;49.934;9.138;2023-03-18T15:08:49;1.08;;;0.85;;
13347;SDS011;6743;49.934;9.138;2023-03-18T15:11:17;2.90;;;1.27;;
13347;SDS011;6743;49.934;9.138;2023-03-18T15:13:45;0.80;;;0.65;;
13347;SDS011;6743;49.934;9.138;2023-03-18T15:16:12;2.10;;;1.20;;
13347;SDS011;6743;49.934;9.138;2023-03-18T15:18:42;0.98;;;0.98;;
13347;SDS011;6743;49.934;9.138;2023-03-18T15:21:09;0.45;;;0.40;;
13347;SDS011;6743;49.934;9.138;2023-03-18T15:23:40;0.85;;;0.85;;
13347;SDS011;6743;49.934;9.138;2023-03-18T15:26:15;0.65;;;0.65;;
13347;SDS011;6743;49.934;9.138;2023-03-18T15:28:44;1.12;;;1.00;;
13347;SDS011;6743;49.934;9.138;2023-03-18T15:31:19;1.10;;;1.00;;
13347;SDS011;6743;49.934;9.138;2023-03-18T15:33:54;1.35;;;1.02;;
13347;SDS011;6743;49.934;9.138;2023-03-18T15:36:27;0.65;;;0.65;;